Time;durP1;ratioP1;P1;durP2;ratioP2;P2;SDS_P1;SDS_P2;PMS_P1;PMS_P2;Temp;Humidity;BMP_temperature;BMP_pressure;BME280_temperature;BME280_humidity;BME280_pressure;Samples;Min_cycle;Max_cycle;Signal;HPM_P1;HPM_P2
2023/04/13 00:00:38;;;;;;;18.38;9.65;;;205.60;2176.00;;;;;;5050686;28;20182;-61
2023/04/13 00:03:04;;;;;;;126.05;61.75;;;205.30;2252.80;;;;;;5050171;28;20447;-61
2023/04/13 00:05:30;;;;;;;28.50;15.38;;;205.40;2252.80;;;;;;5037296;28;20040;-62
2023/04/13 00:08:01;;;;;;;26.00;13.43;;;205.40;2252.80;;;;;;5049592;28;20379;-61
2023/04/13 00:10:27;;;;;;;29.95;15.98;;;205.30;2252.80;;;;;;5048785;28;20045;-61
2023/04/13 00:12:53;;;;;;;26.13;16.02;;;205.50;2252.80;;;;;;5042424;28;20018;-61
2023/04/13 00:15:18;;;;;;;11.43;7.72;;;205.40;2252.80;;;;;;5044344;28;20029;-60
2023/04/13 00:17:46;;;;;;;15.43;7.13;;;205.40;2252.80;;;;;;5050317;28;20028;-60
2023/04/13 00:20:13;;;;;;;11.00;7.25;;;205.40;2252.80;;;;;;5049987;28;20035;-61
2023/04/13 00:22:43;;;;;;;39.70;23.77;;;205.40;2252.80;;;;;;5050378;28;20463;-61
2023/04/13 00:25:10;;;;;;;17.27;10.07;;;205.40;2252.80;;;;;;5049846;28;20487;-61
2023/04/13 00:27:41;;;;;;;15.70;9.43;;;205.50;2252.80;;;;;;5049790;28;20486;-60
2023/04/13 00:30:08;;;;;;;28.35;17.95;;;205.40;2252.80;;;;;;5049386;28;20517;-61
2023/04/13 00:32:36;;;;;;;12.32;9.13;;;205.50;2252.80;;;;;;5050207;28;20105;-61
2023/04/13 00:35:02;;;;;;;30.27;16.98;;;205.40;2252.80;;;;;;5049614;28;20052;-59
2023/04/13 00:37:29;;;;;;;22.13;13.95;;;205.30;2252.80;;;;;;5049760;28;20104;-61
2023/04/13 00:39:55;;;;;;;20.13;10.30;;;205.50;2252.80;;;;;;5049542;28;20717;-61
2023/04/13 00:42:21;;;;;;;15.23;9.52;;;205.30;2252.80;;;;;;5049134;28;20021;-61
2023/04/13 00:44:47;;;;;;;25.88;13.45;;;205.30;2252.80;;;;;;5049852;28;20029;-61
2023/04/13 00:47:16;;;;;;;15.45;9.77;;;205.30;2252.80;;;;;;5049563;28;20360;-61
2023/04/13 00:49:42;;;;;;;9.45;7.15;;;205.30;2252.80;;;;;;5049394;28;20552;-61
2023/04/13 00:52:10;;;;;;;13.98;8.25;;;205.40;2252.80;;;;;;5049652;28;20075;-60
2023/04/13 00:54:37;;;;;;;16.13;11.15;;;205.30;2252.80;;;;;;5049472;28;20024;-60
2023/04/13 00:57:04;;;;;;;14.02;9.00;;;205.40;2252.80;;;;;;5049002;28;20025;-61
2023/04/13 00:59:30;;;;;;;17.70;12.40;;;205.40;2252.80;;;;;;5049361;28;20075;-61
2023/04/13 01:01:57;;;;;;;25.48;14.27;;;205.50;2252.80;;;;;;5047912;28;20161;-60
2023/04/13 01:04:29;;;;;;;38.58;24.38;;;205.40;2252.80;;;;;;5049059;28;20029;-61
2023/04/13 01:07:12;;;;;;;47.22;26.75;;;205.40;2252.80;;;;;;5049532;28;20024;-61
2023/04/13 01:09:51;;;;;;;14.07;8.98;;;205.40;2252.80;;;;;;5048706;28;20037;-61
2023/04/13 01:12:25;;;;;;;55.28;30.38;;;205.30;2252.80;;;;;;5049328;28;20025;-61
2023/04/13 01:15:11;;;;;;;29.63;16.33;;;205.40;2252.80;;;;;;5043634;28;20470;-61
2023/04/13 01:17:40;;;;;;;19.20;10.20;;;205.30;2252.80;;;;;;5043816;28;20115;-61
2023/04/13 01:20:14;;;;;;;13.20;7.05;;;205.40;2252.80;;;;;;5049173;28;20332;-61
2023/04/13 01:22:45;;;;;;;11.85;7.18;;;205.20;2252.80;;;;;;5048786;28;20033;-61
2023/04/13 01:25:37;;;;;;;22.15;14.27;;;205.10;2252.80;;;;;;5049220;28;20409;-61
2023/04/13 01:28:06;;;;;;;15.73;9.02;;;205.20;2252.80;;;;;;5048509;28;20025;-61
2023/04/13 01:30:34;;;;;;;15.63;8.02;;;205.30;2252.80;;;;;;5048283;28;20409;-62
2023/04/13 01:33:02;;;;;;;7.72;5.55;;;205.20;2252.80;;;;;;5048448;28;20047;-62
2023/04/13 01:35:29;;;;;;;11.82;7.00;;;204.80;2252.80;;;;;;5023016;28;20063;-60
2023/04/13 01:37:58;;;;;;;9.90;5.38;;;204.90;2252.80;;;;;;5048945;28;20021;-61
2023/04/13 01:40:26;;;;;;;8.25;4.40;;;180.00;2252.80;;;;;;5048069;28;20059;-61
2023/04/13 01:42:51;;;;;;;13.45;6.15;;;180.10;2252.80;;;;;;5048549;28;20017;-62
2023/04/13 01:45:20;;;;;;;8.32;5.07;;;180.10;2252.80;;;;;;5035550;28;20140;-61
2023/04/13 01:48:20;;;;;;;11.50;6.78;;;180.00;2252.80;;;;;;5049223;28;20379;-60
2023/04/13 01:50:53;;;;;;;7.32;3.97;;;180.00;2252.80;;;;;;5046414;28;20487;-61
2023/04/13 01:53:21;;;;;;;;;;;204.80;2252.80;;;;;;5046775;28;20025;-61
2023/04/13 01:55:48;;;;;;;6.93;5.50;;;204.90;2252.80;;;;;;5046547;28;19911;-61
2023/04/13 01:58:17;;;;;;;10.35;7.05;;;205.10;2252.80;;;;;;5046011;28;20057;-59
2023/04/13 02:00:44;;;;;;;13.18;8.48;;;205.20;2252.80;;;;;;5046566;28;20076;-62
2023/04/13 02:03:11;;;;;;;19.55;10.65;;;205.20;2252.80;;;;;;5045743;28;20040;-62
2023/04/13 02:05:37;;;;;;;27.05;15.40;;;205.30;2252.80;;;;;;5046726;28;20032;-61
2023/04/13 02:08:05;;;;;;;12.77;7.60;;;205.30;2252.80;;;;;;5042931;28;20038;-61
2023/04/13 02:10:31;;;;;;;22.30;12.40;;;205.40;2252.80;;;;;;5035449;28;20112;-62
2023/04/13 02:12:57;;;;;;;30.25;18.90;;;205.30;2252.80;;;;;;5046481;28;20099;-63
2023/04/13 02:15:23;;;;;;;27.88;15.73;;;205.30;2252.80;;;;;;5046311;28;20033;-61
2023/04/13 02:17:49;;;;;;;13.32;8.00;;;205.20;2252.80;;;;;;5045709;28;20025;-61
2023/04/13 02:20:15;;;;;;;10.00;6.07;;;205.20;2252.80;;;;;;5046119;28;20037;-61
2023/04/13 02:22:42;;;;;;;15.98;10.13;;;205.20;2252.80;;;;;;5045912;28;20017;-62
2023/04/13 02:25:12;;;;;;;12.85;7.93;;;205.30;2252.80;;;;;;5046308;28;20469;-61
2023/04/13 02:27:38;;;;;;;12.95;6.45;;;205.20;2252.80;;;;;;5047741;28;20545;-61
2023/04/13 02:30:08;;;;;;;11.48;7.55;;;205.00;2252.80;;;;;;5048582;28;20113;-61
2023/04/13 02:32:37;;;;;;;7.90;4.80;;;205.00;2252.80;;;;;;5048127;28;20041;-60
2023/04/13 02:35:04;;;;;;;8.57;4.50;;;205.20;2252.80;;;;;;5050742;28;20028;-61
2023/04/13 02:37:31;;;;;;;6.63;3.60;;;205.20;2252.80;;;;;;5052108;28;20020;-61
2023/04/13 02:39:57;;;;;;;12.20;5.53;;;205.20;2252.80;;;;;;5051605;28;20120;-61
2023/04/13 02:42:23;;;;;;;9.57;5.07;;;205.20;2252.80;;;;;;5051352;28;20778;-61
2023/04/13 02:44:49;;;;;;;20.38;11.90;;;205.30;2252.80;;;;;;5040713;28;20018;-61
2023/04/13 02:47:16;;;;;;;27.88;15.90;;;205.20;2252.80;;;;;;5049799;28;20032;-61
2023/04/13 02:49:42;;;;;;;15.15;10.48;;;205.30;2252.80;;;;;;5051712;28;20493;-62
2023/04/13 02:52:08;;;;;;;24.05;14.15;;;205.30;2252.80;;;;;;5052058;28;20033;-61
2023/04/13 02:54:34;;;;;;;21.65;15.40;;;205.20;2252.80;;;;;;5051694;28;20077;-61
2023/04/13 02:57:00;;;;;;;7.18;4.88;;;205.20;2252.80;;;;;;5051727;28;20117;-61
2023/04/13 02:59:27;;;;;;;14.75;7.13;;;205.10;2252.80;;;;;;5037722;28;20033;-60
2023/04/13 03:01:57;;;;;;;8.82;5.72;;;205.00;2252.80;;;;;;5051192;28;20070;-59
2023/04/13 03:04:23;;;;;;;8.50;4.07;;;205.00;2252.80;;;;;;5051206;28;20483;-61
2023/04/13 03:06:50;;;;;;;8.15;5.55;;;204.80;2252.80;;;;;;5051674;28;20029;-61
2023/04/13 03:09:16;;;;;;;7.95;5.18;;;205.00;2252.80;;;;;;5051080;28;20398;-61
2023/04/13 03:11:42;;;;;;;9.48;5.80;;;205.10;2252.80;;;;;;5051492;28;20033;-61
2023/04/13 03:14:11;;;;;;;6.65;4.50;;;205.10;2252.80;;;;;;5051112;28;20032;-61
2023/04/13 03:16:37;;;;;;;9.20;4.75;;;205.20;2252.80;;;;;;5051145;28;20426;-61
2023/04/13 03:19:04;;;;;;;7.03;3.33;;;205.20;2252.80;;;;;;5051678;28;20029;-61
2023/04/13 03:21:31;;;;;;;6.07;3.55;;;205.10;2252.80;;;;;;5051159;28;20040;-60
2023/04/13 03:23:57;;;;;;;9.30;4.43;;;204.80;2252.80;;;;;;5050918;28;20029;-61
2023/04/13 03:26:24;;;;;;;9.27;4.60;;;204.80;2252.80;;;;;;5050976;28;20025;-61
2023/04/13 03:28:50;;;;;;;6.95;3.65;;;204.80;2252.80;;;;;;5050763;28;20560;-61
2023/04/13 03:31:16;;;;;;;8.57;4.47;;;204.80;2252.80;;;;;;5050974;28;20029;-61
2023/04/13 03:33:42;;;;;;;7.30;3.45;;;204.90;2252.80;;;;;;5049723;28;20437;-61
2023/04/13 03:36:08;;;;;;;8.27;4.65;;;204.90;2252.80;;;;;;5051373;28;20033;-61
2023/04/13 03:38:34;;;;;;;7.70;5.07;;;205.10;2252.80;;;;;;5050539;28;20108;-61
2023/04/13 03:41:00;;;;;;;5.68;3.58;;;205.00;2252.80;;;;;;5050607;28;20132;-61
2023/04/13 03:43:26;;;;;;;8.07;4.78;;;205.00;2252.80;;;;;;5050521;28;20033;-60
2023/04/13 03:45:51;;;;;;;19.40;14.02;;;205.00;2252.80;;;;;;5050440;28;20021;-61
2023/04/13 03:48:17;;;;;;;26.70;16.85;;;205.00;2252.80;;;;;;5050708;28;20032;-60
2023/04/13 03:50:43;;;;;;;19.42;12.10;;;205.00;2252.80;;;;;;5049819;28;20028;-59
2023/04/13 03:53:09;;;;;;;14.00;9.00;;;205.00;2252.80;;;;;;5049835;28;20032;-62
2023/04/13 03:55:35;;;;;;;14.02;7.25;;;205.00;2252.80;;;;;;5049376;28;20025;-60
2023/04/13 03:58:01;;;;;;;11.98;9.48;;;205.00;2252.80;;;;;;5049447;28;20017;-61
2023/04/13 04:00:26;;;;;;;11.10;7.82;;;204.90;2252.80;;;;;;5049625;28;20044;-61
2023/04/13 04:02:52;;;;;;;13.02;8.63;;;204.90;2252.80;;;;;;5049556;28;20033;-62
2023/04/13 04:05:18;;;;;;;13.02;10.90;;;204.90;2252.80;;;;;;5049652;28;20024;-61
2023/04/13 04:07:43;;;;;;;8.30;5.28;;;204.90;2252.80;;;;;;5049669;28;20070;-63
2023/04/13 04:10:09;;;;;;;8.48;4.53;;;204.90;2252.80;;;;;;5050201;28;20550;-61
2023/04/13 04:12:35;;;;;;;7.13;4.32;;;204.80;2252.80;;;;;;5050434;28;20028;-60
2023/04/13 04:15:01;;;;;;;7.93;4.68;;;204.90;2252.80;;;;;;5049928;28;20021;-61
2023/04/13 04:17:26;;;;;;;9.68;4.25;;;204.90;2252.80;;;;;;5050393;28;20056;-61
2023/04/13 04:19:52;;;;;;;10.27;4.60;;;204.90;2252.80;;;;;;5049919;28;20025;-62
2023/04/13 04:22:18;;;;;;;8.75;5.03;;;204.90;2252.80;;;;;;5050214;28;20025;-61
2023/04/13 04:24:44;;;;;;;10.80;6.85;;;204.90;2252.80;;;;;;5043681;28;20028;-61
2023/04/13 04:27:13;;;;;;;9.32;6.75;;;204.90;2252.80;;;;;;5042648;28;20036;-59
2023/04/13 04:29:39;;;;;;;8.52;6.57;;;204.90;2252.80;;;;;;5050272;28;20379;-60
2023/04/13 04:32:09;;;;;;;8.00;4.43;;;204.90;2252.80;;;;;;5049916;28;20036;-61
2023/04/13 04:34:35;;;;;;;9.68;5.10;;;204.90;2252.80;;;;;;5050193;28;20036;-61
2023/04/13 04:37:04;;;;;;;165.55;86.53;;;205.00;2252.80;;;;;;5049512;28;20025;-61
2023/04/13 04:39:33;;;;;;;10.65;6.68;;;205.10;2252.80;;;;;;5049470;28;20403;-61
2023/04/13 04:42:02;;;;;;;14.65;8.77;;;205.20;2252.80;;;;;;5033291;28;20120;-60
2023/04/13 04:44:29;;;;;;;12.43;7.40;;;205.10;2252.80;;;;;;5028494;28;20029;-62
2023/04/13 04:46:59;;;;;;;8.35;4.90;;;205.20;2252.80;;;;;;5035338;28;20025;-61
2023/04/13 04:49:27;;;;;;;10.32;4.30;;;205.20;2252.80;;;;;;5049787;28;20589;-59
2023/04/13 04:51:56;;;;;;;6.45;3.95;;;205.30;2252.80;;;;;;5023770;28;20029;-60
2023/04/13 04:54:23;;;;;;;9.57;5.40;;;205.30;2252.80;;;;;;5049200;28;20029;-60
2023/04/13 04:56:50;;;;;;;5.72;3.80;;;205.30;2252.80;;;;;;5048779;28;20025;-60
2023/04/13 04:59:17;;;;;;;10.57;7.38;;;205.40;2252.80;;;;;;5048325;28;20486;-60
2023/04/13 05:01:42;;;;;;;10.77;7.13;;;205.60;2252.80;;;;;;5049072;28;20374;-60
2023/04/13 05:04:08;;;;;;;8.23;5.45;;;205.70;2252.80;;;;;;5049283;28;20104;-61
2023/04/13 05:06:34;;;;;;;9.07;6.88;;;256.30;2252.80;;;;;;5049346;28;20052;-59
2023/04/13 05:09:01;;;;;;;9.57;5.90;;;358.70;2048.00;;;;;;5049059;28;20130;-61
2023/04/13 05:11:31;;;;;;;11.52;6.47;;;410.40;1792.00;;;;;;5049024;28;20048;-61
2023/04/13 05:13:57;;;;;;;11.93;8.65;;;461.70;1638.40;;;;;;5048955;28;20020;-60
2023/04/13 05:16:23;;;;;;;15.77;8.70;;;512.10;1510.40;;;;;;5049084;28;20028;-62
2023/04/13 05:18:49;;;;;;;9.82;7.95;;;537.90;1459.20;;;;;;5035426;28;20029;-61
2023/04/13 05:21:15;;;;;;;10.23;7.93;;;538.20;1408.00;;;;;;5049385;28;20021;-61
2023/04/13 05:23:42;;;;;;;14.48;7.75;;;563.60;1408.00;;;;;;5048332;28;20047;-63
2023/04/13 05:26:11;;;;;;;11.35;8.32;;;589.00;1356.80;;;;;;5048835;28;20120;-62
2023/04/13 05:28:37;;;;;;;11.10;7.60;;;614.50;1280.00;;;;;;5029392;28;20036;-61
2023/04/13 05:31:06;;;;;;;9.00;6.75;;;589.30;1305.60;;;;;;5029030;28;20022;-62
2023/04/13 05:33:34;;;;;;;11.70;10.15;;;615.10;1254.40;;;;;;5031645;28;20025;-61
2023/04/13 05:36:02;;;;;;;20.17;15.00;;;640.00;1228.80;;;;;;5048596;28;20032;-63
2023/04/13 05:38:28;;;;;;;16.52;13.32;;;615.20;1228.80;;;;;;5048749;28;20475;-62
2023/04/13 05:40:53;;;;;;;10.32;7.82;;;640.60;1203.20;;;;;;5048526;28;20080;-62
2023/04/13 05:43:20;;;;;;;13.57;9.20;;;666.50;1126.40;;;;;;5048993;28;20375;-61
2023/04/13 05:45:46;;;;;;;9.48;7.45;;;691.30;1126.40;;;;;;5048715;28;20095;-62
2023/04/13 05:48:12;;;;;;;10.48;6.80;;;691.80;1100.80;;;;;;5044008;28;20082;-62
2023/04/13 05:50:38;;;;;;;8.23;6.40;;;640.90;1126.40;;;;;;5038784;28;20029;-62
2023/04/13 05:53:06;;;;;;;7.00;5.88;;;640.70;1152.00;;;;;;5048412;28;20013;-62
2023/04/13 05:55:32;;;;;;;17.27;8.05;;;691.60;1126.40;;;;;;5048611;28;20029;-62
2023/04/13 05:58:03;;;;;;;9.88;6.78;;;717.30;1100.80;;;;;;5045197;28;20021;-62
2023/04/13 06:00:29;;;;;;;9.18;7.10;;;742.90;1075.20;;;;;;5028822;28;20022;-63
2023/04/13 06:02:58;;;;;;;8.88;6.90;;;768.70;1024.00;;;;;;5041496;28;20036;-63
2023/04/13 06:05:23;;;;;;;17.10;11.32;;;794.20;1024.00;;;;;;5045413;28;20503;-63
2023/04/13 06:07:49;;;;;;;10.85;8.30;;;819.30;972.80;;;;;;5047641;28;20112;-63
2023/04/13 06:10:15;;;;;;;11.52;10.10;;;819.70;947.20;;;;;;5049950;28;20045;-63
2023/04/13 06:12:41;;;;;;;9.25;8.27;;;845.10;921.60;;;;;;5051000;28;20029;-63
2023/04/13 06:15:08;;;;;;;11.05;9.93;;;845.10;947.20;;;;;;5038682;28;20044;-64
2023/04/13 06:17:34;;;;;;;14.57;12.90;;;794.00;972.80;;;;;;5051435;28;20028;-63
2023/04/13 06:20:00;;;;;;;13.30;12.10;;;844.90;947.20;;;;;;5051085;28;20072;-65
2023/04/13 06:22:26;;;;;;;15.63;13.65;;;845.20;972.80;;;;;;5051639;28;20494;-64
2023/04/13 06:24:52;;;;;;;16.63;15.02;;;845.20;947.20;;;;;;5037543;28;20025;-65
2023/04/13 06:27:18;;;;;;;15.38;13.85;;;845.50;921.60;;;;;;5051321;28;20471;-65
2023/04/13 06:29:44;;;;;;;20.98;17.63;;;;;;;;;;5036487;28;20033;-65
2023/04/13 06:32:11;;;;;;;19.08;17.27;;;;;;;;;;5051159;28;20025;-64
2023/04/13 06:34:37;;;;;;;21.25;18.92;;;870.60;896.00;;;;;;5038094;28;20041;-66
2023/04/13 06:37:03;;;;;;;15.68;14.32;;;870.70;896.00;;;;;;5043133;28;20021;-65
2023/04/13 06:39:30;;;;;;;14.20;12.95;;;871.30;870.40;;;;;;5033619;28;20107;-66
2023/04/13 06:41:56;;;;;;;17.00;15.25;;;896.40;870.40;;;;;;5043184;28;20032;-67
2023/04/13 06:44:23;;;;;;;13.50;12.10;;;896.90;870.40;;;;;;5047102;28;20036;-68
2023/04/13 06:46:49;;;;;;;17.88;16.27;;;;;;;;;;5052327;28;20472;-67
2023/04/13 06:49:15;;;;;;;25.33;22.73;;;;;;;;;;5052305;28;20441;-66
2023/04/13 06:51:41;;;;;;;21.40;19.30;;;922.30;870.40;;;;;;5051930;28;20019;-67
2023/04/13 06:54:07;;;;;;;16.63;15.10;;;871.10;870.40;;;;;;5051569;28;20032;-68
2023/04/13 06:56:32;;;;;;;18.23;16.42;;;870.50;870.40;;;;;;5051809;28;20021;-66
2023/04/13 06:59:00;;;;;;;18.50;16.50;;;;;;;;;;5051601;28;20033;-66
2023/04/13 07:01:27;;;;;;;22.23;19.90;;;870.80;870.40;;;;;;5051895;28;20463;-65
2023/04/13 07:03:53;;;;;;;20.05;18.00;;;870.60;870.40;;;;;;5051378;28;20485;-66
2023/04/13 07:06:20;;;;;;;20.65;18.65;;;845.50;870.40;;;;;;5051990;28;20029;-67
2023/04/13 07:08:46;;;;;;;19.45;16.63;;;870.70;870.40;;;;;;5051398;28;20115;-67
2023/04/13 07:11:12;;;;;;;22.70;20.35;;;819.50;921.60;;;;;;5051706;28;20104;-66
2023/04/13 07:13:38;;;;;;;26.30;22.60;;;845.50;896.00;;;;;;5051378;28;20471;-66
2023/04/13 07:16:04;;;;;;;28.48;24.02;;;819.80;921.60;;;;;;5051667;28;20032;-66
2023/04/13 07:18:30;;;;;;;34.78;31.42;;;871.20;870.40;;;;;;5050843;28;20479;-66
2023/04/13 07:20:56;;;;;;;36.45;31.30;;;921.80;870.40;;;;;;5051453;28;20465;-68
2023/04/13 07:23:22;;;;;;;31.83;28.15;;;871.30;870.40;;;;;;5050763;28;20029;-66
2023/04/13 07:25:48;;;;;;;42.15;38.35;;;820.10;921.60;;;;;;5051614;28;20029;-66
2023/04/13 07:28:14;;;;;;;42.88;38.42;;;;;;;;;;5050856;28;20474;-66
2023/04/13 07:30:43;;;;;;;51.75;45.33;;;;;;;;;;5050750;28;20041;-66
2023/04/13 07:33:09;;;;;;;45.53;40.83;;;896.90;870.40;;;;;;5050928;28;20120;-66
2023/04/13 07:35:39;;;;;;;41.10;37.05;;;947.60;870.40;;;;;;5051126;28;20029;-67
2023/04/13 07:38:05;;;;;;;38.95;33.67;;;973.20;844.80;;;;;;5051133;28;20523;-66
2023/04/13 07:40:31;;;;;;;36.15;32.58;;;947.80;870.40;;;;;;5050167;28;20045;-68
2023/04/13 07:42:56;;;;;;;30.77;26.67;;;973.20;844.80;;;;;;5051004;28;20561;-67
2023/04/13 07:45:22;;;;;;;30.48;27.67;;;921.80;896.00;;;;;;5050468;28;20048;-67
2023/04/13 07:47:48;;;;;;;29.08;26.42;;;973.20;844.80;;;;;;5051074;28;20036;-66
2023/04/13 07:50:15;;;;;;;26.42;23.80;;;973.60;819.20;;;;;;5050066;28;20045;-65
2023/04/13 07:52:41;;;;;;;28.58;24.20;;;947.40;844.80;;;;;;5050883;28;20118;-63
2023/04/13 07:55:08;;;;;;;29.08;26.10;;;948.00;844.80;;;;;;5050725;28;20029;-64
2023/04/13 07:57:35;;;;;;;20.98;18.77;;;999.00;819.20;;;;;;5050483;28;20095;-65
2023/04/13 08:00:02;;;;;;;24.40;22.02;;;973.20;793.60;;;;;;5050410;28;20479;-64
2023/04/13 08:02:29;;;;;;;28.77;21.25;;;922.30;844.80;;;;;;5050453;28;20112;-68
2023/04/13 08:04:55;;;;;;;24.15;21.67;;;947.90;819.20;;;;;;5050269;28;20017;-67
2023/04/13 08:07:21;;;;;;;21.80;19.42;;;973.50;819.20;;;;;;5050532;28;20028;-64
2023/04/13 08:09:48;;;;;;;18.27;15.65;;;947.20;844.80;;;;;;5050114;28;20116;-67
2023/04/13 08:12:15;;;;;;;19.88;15.85;;;973.40;793.60;;;;;;5050476;28;20029;-64
2023/04/13 08:14:41;;;;;;;18.95;17.05;;;948.10;793.60;;;;;;5049979;28;20017;-63
2023/04/13 08:17:07;;;;;;;22.33;17.02;;;973.20;819.20;;;;;;5050877;28;20062;-64
2023/04/13 08:19:34;;;;;;;18.60;15.48;;;973.20;819.20;;;;;;5050017;28;20025;-65
2023/04/13 08:22:00;;;;;;;23.73;15.30;;;972.80;844.80;;;;;;5050140;28;20491;-65
2023/04/13 08:24:26;;;;;;;28.15;14.27;;;947.60;844.80;;;;;;5050031;28;20055;-66
2023/04/13 08:26:57;;;;;;;20.77;15.80;;;973.30;819.20;;;;;;5050052;28;20025;-64
2023/04/13 08:29:23;;;;;;;15.80;14.00;;;947.60;819.20;;;;;;5049592;28;20033;-64
2023/04/13 08:31:49;;;;;;;21.67;16.73;;;973.10;819.20;;;;;;5049222;28;20013;-67
2023/04/13 08:34:17;;;;;;;22.45;17.77;;;922.30;870.40;;;;;;5050015;28;20074;-64
2023/04/13 08:36:44;;;;;;;21.52;18.17;;;896.20;896.00;;;;;;5049714;28;20032;-65
2023/04/13 08:39:10;;;;;;;22.83;18.33;;;896.90;870.40;;;;;;5049331;28;20033;-65
2023/04/13 08:41:37;;;;;;;23.25;17.92;;;870.80;947.20;;;;;;5050160;28;20364;-67
2023/04/13 08:44:07;;;;;;;20.08;16.77;;;820.10;972.80;;;;;;5049345;28;20021;-65
2023/04/13 08:46:33;;;;;;;18.17;15.30;;;793.90;1024.00;;;;;;5036795;28;20021;-62
2023/04/13 08:49:00;;;;;;;17.13;12.50;;;743.20;1075.20;;;;;;5049686;28;20037;-66
2023/04/13 08:51:28;;;;;;;26.35;13.10;;;742.60;1100.80;;;;;;5049513;28;20108;-63
2023/04/13 08:53:54;;;;;;;24.30;14.65;;;691.70;1100.80;;;;;;5049345;28;20059;-62
2023/04/13 08:56:22;;;;;;;19.45;13.30;;;691.20;1177.60;;;;;;5049050;28;20479;-62
2023/04/13 08:58:50;;;;;;;21.60;12.55;;;666.50;1177.60;;;;;;5042642;28;20467;-66
2023/04/13 09:01:17;;;;;;;14.55;10.45;;;666.50;1152.00;;;;;;5042641;28;20071;-62
2023/04/13 09:04:09;;;;;;;11.88;8.60;;;640.70;1152.00;;;;;;5036330;28;20546;-62
2023/04/13 09:06:39;;;;;;;15.23;10.23;;;665.60;1177.60;;;;;;5049595;28;20025;-63
2023/04/13 09:09:11;;;;;;;11.15;8.82;;;640.60;1177.60;;;;;;5049153;28;20032;-63
2023/04/13 09:11:38;;;;;;;14.45;9.77;;;665.60;1203.20;;;;;;5049397;28;20025;-63
2023/04/13 09:14:03;;;;;;;11.25;8.32;;;665.70;1177.60;;;;;;5049389;28;20025;-63
2023/04/13 09:16:36;;;;;;;17.90;8.50;;;640.60;1177.60;;;;;;5048935;28;20712;-62
2023/04/13 09:19:03;;;;;;;11.45;9.00;;;615.20;1203.20;;;;;;5048792;28;20021;-64
2023/04/13 09:21:39;;;;;;;10.10;7.10;;;640.00;1177.60;;;;;;5049264;28;20387;-63
2023/04/13 09:24:06;;;;;;;9.57;6.85;;;614.80;1177.60;;;;;;5049258;28;20025;-63
2023/04/13 09:26:52;;;;;;;13.45;7.55;;;614.80;1203.20;;;;;;5048904;28;20021;-65
2023/04/13 09:29:20;;;;;;;10.85;7.45;;;640.20;1177.60;;;;;;5048998;28;20079;-64
2023/04/13 09:31:46;;;;;;;11.20;7.43;;;640.10;1177.60;;;;;;5049034;28;20063;-63
2023/04/13 09:34:13;;;;;;;9.75;6.90;;;640.20;1177.60;;;;;;5048968;28;20112;-63
2023/04/13 09:36:40;;;;;;;8.23;6.82;;;640.10;1177.60;;;;;;5049049;28;20490;-64
2023/04/13 09:39:06;;;;;;;20.05;12.93;;;614.70;1177.60;;;;;;5048945;28;20036;-63
2023/04/13 09:41:36;;;;;;;23.63;12.20;;;615.10;1177.60;;;;;;5049167;28;20029;-62
2023/04/13 09:44:14;;;;;;;27.02;15.05;;;640.40;1177.60;;;;;;5050642;28;20074;-62
2023/04/13 09:46:40;;;;;;;10.77;7.53;;;640.20;1177.60;;;;;;5053216;28;20029;-62
2023/04/13 09:49:06;;;;;;;80.43;31.45;;;640.50;1152.00;;;;;;5053310;28;20433;-67
2023/04/13 09:51:39;;;;;;;15.88;8.07;;;665.80;1152.00;;;;;;5039373;28;20130;-63
2023/04/13 09:54:06;;;;;;;18.20;10.52;;;665.90;1126.40;;;;;;5053288;28;20028;-67
2023/04/13 09:56:46;;;;;;;14.13;8.52;;;666.30;1152.00;;;;;;5052319;28;20116;-65
2023/04/13 09:59:12;;;;;;;9.18;7.15;;;666.40;1152.00;;;;;;5052870;28;20147;-62
2023/04/13 10:01:39;;;;;;;9.07;6.70;;;666.50;1126.40;;;;;;5052449;28;20028;-62
2023/04/13 10:04:07;;;;;;;11.10;6.93;;;666.20;1126.40;;;;;;5052539;28;20036;-64
2023/04/13 10:06:40;;;;;;;7.90;6.13;;;666.00;1177.60;;;;;;5052137;28;20021;-63
2023/04/13 10:09:06;;;;;;;10.07;6.40;;;665.70;1152.00;;;;;;5053027;28;20036;-63
2023/04/13 10:11:43;;;;;;;10.25;6.32;;;640.70;1126.40;;;;;;5052267;28;20028;-63
2023/04/13 10:14:21;;;;;;;9.73;7.47;;;665.70;1177.60;;;;;;5052826;28;20024;-63
2023/04/13 10:17:09;;;;;;;14.02;9.50;;;665.80;1152.00;;;;;;5052459;28;20135;-62
2023/04/13 10:19:48;;;;;;;18.08;10.55;;;665.70;1152.00;;;;;;5052397;28;20048;-67
2023/04/13 10:22:15;;;;;;;9.95;8.30;;;640.90;1177.60;;;;;;5052400;28;20029;-62
2023/04/13 10:24:42;;;;;;;12.02;7.30;;;640.40;1152.00;;;;;;5052065;28;20602;-62
2023/04/13 10:27:15;;;;;;;12.60;6.78;;;640.40;1152.00;;;;;;5052294;28;20032;-62
2023/04/13 10:29:41;;;;;;;9.95;7.07;;;640.40;1152.00;;;;;;5052099;28;20033;-62
2023/04/13 10:32:07;;;;;;;12.00;8.15;;;640.40;1177.60;;;;;;5052452;28;20391;-63
2023/04/13 10:34:34;;;;;;;9.52;6.97;;;640.20;1177.60;;;;;;5051849;28;20044;-62
2023/04/13 10:37:05;;;;;;;11.98;7.28;;;615.20;1177.60;;;;;;5051885;28;20383;-63
2023/04/13 10:39:33;;;;;;;8.50;6.07;;;615.10;1203.20;;;;;;5052018;28;20522;-64
2023/04/13 10:42:00;;;;;;;15.80;7.70;;;614.80;1203.20;;;;;;5052217;28;20029;-66
2023/04/13 10:44:26;;;;;;;10.95;7.10;;;615.00;1203.20;;;;;;5052128;28;20029;-62
2023/04/13 10:46:53;;;;;;;11.65;6.35;;;614.90;1203.20;;;;;;5051922;28;20029;-65
2023/04/13 10:49:30;;;;;;;11.07;6.93;;;615.30;1203.20;;;;;;5051837;28;20068;-62
2023/04/13 10:51:56;;;;;;;12.75;8.90;;;615.10;1177.60;;;;;;5051977;28;20031;-62
2023/04/13 10:54:23;;;;;;;12.40;8.00;;;615.00;1203.20;;;;;;5051436;28;20449;-63
2023/04/13 10:57:05;;;;;;;9.75;6.35;;;615.20;1177.60;;;;;;5051194;28;20021;-63
2023/04/13 10:59:54;;;;;;;11.80;6.55;;;615.00;1177.60;;;;;;5051360;28;20039;-63
2023/04/13 11:02:20;;;;;;;9.60;6.13;;;614.80;1203.20;;;;;;5029597;28;20025;-63
2023/04/13 11:04:47;;;;;;;9.32;6.43;;;614.90;1177.60;;;;;;5051853;28;20082;-62
2023/04/13 11:07:18;;;;;;;9.68;6.18;;;615.00;1228.80;;;;;;5043448;28;20026;-63
2023/04/13 11:09:51;;;;;;;9.85;6.00;;;640.00;1203.20;;;;;;5032990;28;20042;-65
2023/04/13 11:12:18;;;;;;;7.47;5.45;;;640.50;1177.60;;;;;;5037735;28;20029;-65
2023/04/13 11:14:48;;;;;;;8.80;6.28;;;640.50;1152.00;;;;;;5030774;28;20033;-62
2023/04/13 11:17:17;;;;;;;7.97;6.72;;;640.90;1152.00;;;;;;5031826;28;20021;-62
2023/04/13 11:19:50;;;;;;;8.05;5.95;;;640.60;1152.00;;;;;;5051369;28;20483;-66
2023/04/13 11:22:21;;;;;;;8.05;5.70;;;665.70;1152.00;;;;;;5051634;28;20079;-65
2023/04/13 11:24:47;;;;;;;8.25;6.30;;;665.60;1177.60;;;;;;5051309;28;20398;-66
2023/04/13 11:27:23;;;;;;;8.93;5.60;;;665.60;1177.60;;;;;;5050507;28;20071;-63
2023/04/13 11:30:06;;;;;;;9.70;5.60;;;665.60;1152.00;;;;;;5051306;28;20041;-62
2023/04/13 11:32:33;;;;;;;15.55;6.60;;;666.00;1152.00;;;;;;5050171;28;20032;-67
2023/04/13 11:35:09;;;;;;;10.13;6.93;;;640.50;1152.00;;;;;;5051071;28;20033;-64
2023/04/13 11:37:39;;;;;;;9.52;6.60;;;640.30;1177.60;;;;;;5051463;28;20044;-65
2023/04/13 11:40:11;;;;;;;7.38;6.05;;;640.60;1152.00;;;;;;5050704;28;20115;-66
2023/04/13 11:42:45;;;;;;;15.43;7.95;;;640.60;1152.00;;;;;;5051022;28;20108;-65
2023/04/13 11:45:12;;;;;;;7.32;6.15;;;665.60;1177.60;;;;;;5040866;28;20435;-63
2023/04/13 11:47:38;;;;;;;7.80;6.32;;;640.90;1126.40;;;;;;5047356;28;20017;-64
2023/04/13 11:50:05;;;;;;;8.82;6.00;;;640.30;1177.60;;;;;;5050577;28;20116;-64
2023/04/13 11:52:32;;;;;;;10.43;6.30;;;640.60;1152.00;;;;;;5049986;28;20033;-64
2023/04/13 11:54:59;;;;;;;8.68;5.90;;;640.30;1177.60;;;;;;5050859;28;20082;-61
2023/04/13 11:57:27;;;;;;;13.10;7.18;;;640.40;1177.60;;;;;;5049792;28;20083;-68
2023/04/13 11:59:53;;;;;;;7.80;6.45;;;640.70;1177.60;;;;;;5050638;28;20467;-63
2023/04/13 12:02:27;;;;;;;36.92;16.10;;;665.70;1152.00;;;;;;5049183;28;20468;-68
2023/04/13 12:04:53;;;;;;;9.13;5.63;;;666.00;1177.60;;;;;;5050388;28;20036;-63
2023/04/13 12:07:19;;;;;;;6.63;5.90;;;666.20;1152.00;;;;;;5050415;28;20025;-63
2023/04/13 12:09:46;;;;;;;8.23;5.72;;;665.90;1152.00;;;;;;5050395;28;20043;-63
2023/04/13 12:12:21;;;;;;;10.80;6.25;;;666.00;1126.40;;;;;;5050142;28;20013;-62
2023/04/13 12:14:57;;;;;;;8.07;5.72;;;665.60;1152.00;;;;;;5040040;28;20025;-65